createdAt,value
2019-05-18T00:00:12.000Z,281.69
2019-05-18T00:01:36.000Z,281.65
2019-05-18T00:03:37.000Z,281.6
2019-05-18T00:05:00.000Z,281.56
2019-05-18T00:07:01.000Z,281.54
2019-05-18T00:08:25.000Z,281.53
2019-05-18T00:10:28.000Z,281.48
2019-05-18T00:11:51.000Z,281.46
2019-05-18T00:13:52.000Z,281.42
2019-05-18T00:15:15.000Z,281.42
2019-05-18T00:17:19.000Z,281.39
2019-05-18T00:18:47.000Z,281.32
2019-05-18T00:20:48.000Z,281.28
2019-05-18T00:22:10.000Z,281.26
2019-05-18T00:24:13.000Z,281.22
2019-05-18T00:25:35.000Z,281.15
2019-05-18T00:27:36.000Z,281.15
2019-05-18T00:28:58.000Z,281.14
2019-05-18T00:31:00.000Z,281.11
2019-05-18T00:32:23.000Z,281.07
2019-05-18T00:34:24.000Z,281.04
2019-05-18T00:35:46.000Z,281
2019-05-18T00:37:48.000Z,280.93
2019-05-18T00:39:11.000Z,280.87
2019-05-18T00:41:12.000Z,280.85
2019-05-18T00:42:34.000Z,280.84
2019-05-18T00:44:38.000Z,280.8
2019-05-18T00:46:04.000Z,280.73
2019-05-18T00:48:05.000Z,280.67
2019-05-18T00:49:27.000Z,280.62
2019-05-18T00:51:30.000Z,280.6
2019-05-18T00:52:53.000Z,280.58
2019-05-18T00:54:54.000Z,280.6
2019-05-18T00:56:17.000Z,280.55
2019-05-18T00:58:18.000Z,280.51
2019-05-18T00:59:41.000Z,280.46
2019-05-18T01:01:43.000Z,280.42
2019-05-18T01:03:06.000Z,280.39
2019-05-18T01:05:09.000Z,280.36
2019-05-18T01:06:32.000Z,280.3
2019-05-18T01:08:35.000Z,280.29
2019-05-18T01:10:01.000Z,280.28
2019-05-18T01:12:03.000Z,280.24
2019-05-18T01:13:30.000Z,280.23
2019-05-18T01:15:33.000Z,280.19
2019-05-18T01:16:57.000Z,280.16
2019-05-18T01:19:00.000Z,280.16
2019-05-18T01:20:29.000Z,280.1
2019-05-18T01:22:36.000Z,280.14
2019-05-18T01:23:58.000Z,280.07
2019-05-18T01:26:02.000Z,280.07
2019-05-18T01:27:34.000Z,279.99
2019-05-18T01:29:38.000Z,279.92
2019-05-18T01:31:03.000Z,279.85
2019-05-18T01:33:08.000Z,279.79
2019-05-18T01:34:31.000Z,279.87
2019-05-18T01:36:35.000Z,279.84
2019-05-18T01:38:07.000Z,279.84
2019-05-18T01:40:10.000Z,279.84
2019-05-18T01:41:37.000Z,279.81
2019-05-18T01:43:40.000Z,279.86
2019-05-18T01:45:04.000Z,279.76
2019-05-18T01:47:20.000Z,279.69
2019-05-18T01:48:49.000Z,279.72
2019-05-18T01:50:53.000Z,279.68
2019-05-18T01:52:22.000Z,279.62
2019-05-18T01:54:28.000Z,279.56
2019-05-18T01:55:55.000Z,279.52
2019-05-18T01:58:01.000Z,279.46
2019-05-18T01:59:29.000Z,279.44
2019-05-18T02:01:32.000Z,279.41
2019-05-18T02:02:56.000Z,279.38
2019-05-18T02:04:59.000Z,279.42
2019-05-18T02:06:24.000Z,279.42
2019-05-18T02:08:25.000Z,279.39
2019-05-18T02:09:53.000Z,279.36
2019-05-18T02:11:54.000Z,279.34
2019-05-18T02:13:21.000Z,279.31
2019-05-18T02:15:25.000Z,279.31
2019-05-18T02:16:56.000Z,279.31
2019-05-18T02:19:03.000Z,279.35
2019-05-18T02:20:34.000Z,279.24
2019-05-18T02:22:40.000Z,279.2
2019-05-18T02:24:05.000Z,279.15
2019-05-18T02:26:13.000Z,279.14
2019-05-18T02:27:43.000Z,279.16
2019-05-18T02:29:49.000Z,279.12
2019-05-18T02:31:21.000Z,279.08
2019-05-18T02:33:33.000Z,279.07
2019-05-18T02:35:06.000Z,279.05
2019-05-18T02:37:12.000Z,279.04
2019-05-18T02:38:41.000Z,279.05
2019-05-18T02:40:48.000Z,279.05
2019-05-18T02:42:14.000Z,278.98
2019-05-18T02:44:22.000Z,278.95
2019-05-18T02:45:49.000Z,278.95
2019-05-18T02:47:57.000Z,278.94
2019-05-18T02:49:24.000Z,278.96
2019-05-18T02:51:28.000Z,278.93
2019-05-18T02:53:00.000Z,278.9
2019-05-18T02:55:08.000Z,278.89
2019-05-18T02:56:42.000Z,278.88
2019-05-18T02:58:50.000Z,278.91
2019-05-18T03:00:16.000Z,278.94
2019-05-18T03:02:29.000Z,278.93
2019-05-18T03:03:58.000Z,278.89
2019-05-18T03:07:42.000Z,278.91
2019-05-18T03:09:49.000Z,278.89
2019-05-18T03:11:52.000Z,278.83
2019-05-18T03:13:14.000Z,278.88
2019-05-18T03:15:15.000Z,278.88
2019-05-18T03:16:37.000Z,278.86
2019-05-18T03:18:38.000Z,278.82
2019-05-18T03:20:00.000Z,278.82
2019-05-18T03:22:01.000Z,278.79
2019-05-18T03:23:23.000Z,278.77
2019-05-18T03:25:24.000Z,278.76
2019-05-18T03:26:47.000Z,278.78
2019-05-18T03:28:48.000Z,278.82
2019-05-18T03:30:10.000Z,278.86
2019-05-18T03:32:11.000Z,278.87
2019-05-18T03:33:33.000Z,278.85
2019-05-18T03:35:35.000Z,278.85
2019-05-18T03:36:57.000Z,278.8
2019-05-18T03:39:00.000Z,278.77
2019-05-18T03:40:23.000Z,278.77
2019-05-18T03:42:24.000Z,278.79
2019-05-18T03:43:46.000Z,278.87
2019-05-18T03:45:47.000Z,278.96
2019-05-18T03:47:09.000Z,279.02
2019-05-18T03:49:10.000Z,279.03
2019-05-18T03:50:49.000Z,279.09
2019-05-18T03:54:23.000Z,279.14
2019-05-18T03:54:56.000Z,279.16
2019-05-18T03:56:19.000Z,279.28
2019-05-18T03:58:20.000Z,279.32
2019-05-18T03:59:42.000Z,279.37
2019-05-18T04:01:45.000Z,279.43
2019-05-18T04:03:07.000Z,279.47
2019-05-18T04:05:08.000Z,279.53
2019-05-18T04:06:30.000Z,279.6
2019-05-18T04:08:31.000Z,279.67
2019-05-18T04:09:54.000Z,279.74
2019-05-18T04:11:55.000Z,279.8
2019-05-18T04:13:18.000Z,279.85
2019-05-18T04:15:19.000Z,279.79
2019-05-18T04:16:41.000Z,279.76
2019-05-18T04:18:44.000Z,279.77
2019-05-18T04:20:09.000Z,279.82
2019-05-18T04:22:12.000Z,279.89
2019-05-18T04:23:33.000Z,280
2019-05-18T04:25:37.000Z,280.06
2019-05-18T04:27:01.000Z,280.11
2019-05-18T04:29:04.000Z,280.18
2019-05-18T04:30:28.000Z,280.27
2019-05-18T04:32:30.000Z,280.35
2019-05-18T04:33:52.000Z,280.48
2019-05-18T04:35:56.000Z,280.58
2019-05-18T04:37:19.000Z,280.63
2019-05-18T04:39:21.000Z,280.67
2019-05-18T04:40:45.000Z,280.74
2019-05-18T04:42:46.000Z,280.82
2019-05-18T04:44:08.000Z,280.89
2019-05-18T04:46:13.000Z,280.97
2019-05-18T04:47:36.000Z,281.04
2019-05-18T04:49:40.000Z,281.09
2019-05-18T04:51:03.000Z,281.16
2019-05-18T04:53:06.000Z,281.2
2019-05-18T04:54:32.000Z,281.27
2019-05-18T04:56:35.000Z,281.37
2019-05-18T04:57:58.000Z,281.46
2019-05-18T04:59:59.000Z,281.57
2019-05-18T05:01:23.000Z,281.67
2019-05-18T05:03:27.000Z,281.74
2019-05-18T05:04:49.000Z,281.78
2019-05-18T05:06:59.000Z,281.87
2019-05-18T05:08:22.000Z,281.92
2019-05-18T05:10:25.000Z,281.99
2019-05-18T05:11:54.000Z,282.07
2019-05-18T05:14:00.000Z,282.15
2019-05-18T05:15:25.000Z,282.2
2019-05-18T05:17:28.000Z,282.21
2019-05-18T05:18:50.000Z,282.23
2019-05-18T05:20:57.000Z,282.34
2019-05-18T05:22:24.000Z,282.44
2019-05-18T05:24:29.000Z,282.54
2019-05-18T05:25:56.000Z,282.62
2019-05-18T05:28:02.000Z,282.69
2019-05-18T05:29:27.000Z,282.75
2019-05-18T05:31:28.000Z,282.85
2019-05-18T05:32:53.000Z,282.92
2019-05-18T05:35:00.000Z,283.01
2019-05-18T05:36:23.000Z,283.1
2019-05-18T05:38:28.000Z,283.16
2019-05-18T05:39:53.000Z,283.28
2019-05-18T05:42:03.000Z,283.33
2019-05-18T05:45:18.000Z,283.4
2019-05-18T05:46:40.000Z,283.41
2019-05-18T05:48:41.000Z,283.51
2019-05-18T05:50:03.000Z,283.6
2019-05-18T05:52:04.000Z,283.68
2019-05-18T05:53:27.000Z,283.75
2019-05-18T05:55:30.000Z,283.78
2019-05-18T05:56:52.000Z,283.81
2019-05-18T05:58:53.000Z,283.85
2019-05-18T06:00:15.000Z,283.85
2019-05-18T06:02:16.000Z,283.88
2019-05-18T06:03:38.000Z,283.95
2019-05-18T06:05:40.000Z,283.98
2019-05-18T06:07:02.000Z,283.96
2019-05-18T06:09:03.000Z,284.03
2019-05-18T06:10:26.000Z,284.11
2019-05-18T06:12:28.000Z,284.15
2019-05-18T06:13:50.000Z,284.24
2019-05-18T06:15:51.000Z,284.33
2019-05-18T06:17:14.000Z,284.46
2019-05-18T06:19:16.000Z,284.62
2019-05-18T06:20:39.000Z,284.68
2019-05-18T06:22:52.000Z,284.78
2019-05-18T06:24:16.000Z,284.84
2019-05-18T06:26:19.000Z,284.87
2019-05-18T06:27:41.000Z,284.95
2019-05-18T06:29:42.000Z,285
2019-05-18T06:31:04.000Z,285.13
2019-05-18T06:33:05.000Z,285.18
2019-05-18T06:34:27.000Z,285.21
2019-05-18T06:36:28.000Z,285.09
2019-05-18T06:37:52.000Z,285.22
2019-05-18T06:39:53.000Z,285.36
2019-05-18T06:41:14.000Z,285.36
2019-05-18T06:43:17.000Z,285.49
2019-05-18T06:44:39.000Z,285.55
2019-05-18T06:46:40.000Z,285.69
2019-05-18T06:48:03.000Z,285.86
2019-05-18T06:50:05.000Z,285.91
2019-05-18T06:51:29.000Z,285.98
2019-05-18T06:53:30.000Z,286.09
2019-05-18T06:54:54.000Z,286.21
2019-05-18T06:56:56.000Z,286.09
2019-05-18T06:58:18.000Z,286.17
2019-05-18T07:00:20.000Z,286.48
2019-05-18T07:01:42.000Z,286.51
2019-05-18T07:03:43.000Z,286.7
2019-05-18T07:05:06.000Z,286.6
2019-05-18T07:07:10.000Z,286.53
2019-05-18T07:08:37.000Z,286.75
2019-05-18T07:10:41.000Z,286.74
2019-05-18T07:12:03.000Z,287.05
2019-05-18T07:14:05.000Z,287.1
2019-05-18T07:15:31.000Z,287
2019-05-18T07:17:34.000Z,287.14
2019-05-18T07:19:00.000Z,287.17
2019-05-18T07:21:02.000Z,287.16
2019-05-18T07:22:25.000Z,287.21
2019-05-18T07:24:27.000Z,287.2
2019-05-18T07:25:51.000Z,287.47
2019-05-18T07:27:54.000Z,287.56
2019-05-18T07:29:18.000Z,287.49
2019-05-18T07:31:23.000Z,287.5
2019-05-18T07:32:47.000Z,287.69
2019-05-18T07:34:50.000Z,287.85
2019-05-18T07:36:15.000Z,288.06
2019-05-18T07:38:18.000Z,288.12
2019-05-18T07:39:42.000Z,288.14
2019-05-18T07:41:52.000Z,288.17
2019-05-18T07:43:14.000Z,288.39
2019-05-18T07:45:22.000Z,288.53
2019-05-18T07:46:49.000Z,288.48
2019-05-18T07:48:51.000Z,288.36
2019-05-18T07:50:20.000Z,288.52
2019-05-18T07:52:26.000Z,288.46
2019-05-18T07:53:48.000Z,288.59
2019-05-18T07:55:49.000Z,288.65
2019-05-18T07:57:13.000Z,288.75
2019-05-18T07:59:16.000Z,288.92
2019-05-18T08:00:43.000Z,289.04
2019-05-18T08:02:44.000Z,289.01
2019-05-18T08:04:08.000Z,289
2019-05-18T08:06:10.000Z,289.14
2019-05-18T08:07:38.000Z,289.24
2019-05-18T08:09:43.000Z,289.24
2019-05-18T08:11:06.000Z,289.21
2019-05-18T08:13:11.000Z,289.2
2019-05-18T08:14:39.000Z,289.33
2019-05-18T08:16:40.000Z,289.32
2019-05-18T08:18:06.000Z,289.53
2019-05-18T08:20:11.000Z,289.68
2019-05-18T08:21:36.000Z,289.76
2019-05-18T08:23:39.000Z,289.92
2019-05-18T08:25:08.000Z,290.03
2019-05-18T08:27:11.000Z,290.12
2019-05-18T08:28:43.000Z,290.18
2019-05-18T08:30:47.000Z,290.16
2019-05-18T08:32:13.000Z,290.3
2019-05-18T08:34:17.000Z,290.32
2019-05-18T08:35:40.000Z,290.34
2019-05-18T08:37:43.000Z,290.49
2019-05-18T08:39:06.000Z,290.56
2019-05-18T08:41:12.000Z,290.63
2019-05-18T08:42:39.000Z,290.54
2019-05-18T08:44:44.000Z,290.61
2019-05-18T08:46:10.000Z,290.75
2019-05-18T08:48:19.000Z,290.88
2019-05-18T08:49:45.000Z,290.87
2019-05-18T08:51:51.000Z,290.88
2019-05-18T08:53:17.000Z,290.91
2019-05-18T08:55:26.000Z,290.92
2019-05-18T08:56:52.000Z,290.91
2019-05-18T08:58:56.000Z,291.03
2019-05-18T09:00:21.000Z,291.05
2019-05-18T09:02:27.000Z,291.15
2019-05-18T09:03:56.000Z,291.25
2019-05-18T09:06:07.000Z,291.37
2019-05-18T09:07:38.000Z,291.42
2019-05-18T09:09:47.000Z,291.59
2019-05-18T09:11:13.000Z,291.66
2019-05-18T09:13:18.000Z,291.71
2019-05-18T09:14:43.000Z,291.88
2019-05-18T09:16:52.000Z,291.91
2019-05-18T09:18:16.000Z,292
2019-05-18T09:20:23.000Z,291.94
2019-05-18T09:21:50.000Z,292.05
2019-05-18T09:23:57.000Z,292.25
2019-05-18T09:25:27.000Z,292.19
2019-05-18T09:27:37.000Z,292.19
2019-05-18T09:29:07.000Z,292.33
2019-05-18T09:31:18.000Z,292.49
2019-05-18T09:32:52.000Z,292.41
2019-05-18T09:34:56.000Z,292.37
2019-05-18T09:36:22.000Z,292.57
2019-05-18T09:38:34.000Z,292.75
2019-05-18T09:40:00.000Z,292.77
2019-05-18T09:42:06.000Z,292.57
2019-05-18T09:43:34.000Z,292.69
2019-05-18T09:45:44.000Z,292.93
2019-05-18T09:47:15.000Z,292.9
2019-05-18T09:49:21.000Z,292.89
2019-05-18T09:50:49.000Z,292.94
2019-05-18T09:54:34.000Z,292.98
2019-05-18T09:55:08.000Z,292.96
2019-05-18T09:56:41.000Z,293.12
2019-05-18T09:58:49.000Z,293.35
2019-05-18T10:00:18.000Z,293.52
2019-05-18T10:02:25.000Z,293.62
2019-05-18T10:03:57.000Z,293.71
2019-05-18T10:06:09.000Z,293.68
2019-05-18T10:07:40.000Z,293.54
2019-05-18T10:09:48.000Z,293.48
2019-05-18T10:11:20.000Z,293.46
2019-05-18T10:13:26.000Z,293.55
2019-05-18T10:14:54.000Z,293.86
2019-05-18T10:17:10.000Z,294.1
2019-05-18T10:18:41.000Z,294.15
2019-05-18T10:20:52.000Z,294.05
2019-05-18T10:22:24.000Z,294.2
2019-05-18T10:24:35.000Z,294.29
2019-05-18T10:26:05.000Z,294.35
2019-05-18T10:28:17.000Z,294.25
2019-05-18T10:29:48.000Z,294.46
2019-05-18T10:33:10.000Z,294.61
2019-05-18T10:34:32.000Z,294.58
2019-05-18T10:36:33.000Z,294.55
2019-05-18T10:37:56.000Z,294.51
2019-05-18T10:39:57.000Z,294.61
2019-05-18T10:41:19.000Z,294.52
2019-05-18T10:43:20.000Z,294.4
2019-05-18T10:44:42.000Z,294.58
2019-05-18T10:46:43.000Z,294.72
2019-05-18T10:48:05.000Z,294.75
2019-05-18T10:50:06.000Z,294.73
2019-05-18T10:51:28.000Z,294.84
2019-05-18T10:53:29.000Z,295.01
2019-05-18T10:54:52.000Z,294.82
2019-05-18T10:56:52.000Z,294.59
2019-05-18T10:58:15.000Z,294.59
2019-05-18T11:00:16.000Z,294.83
2019-05-18T11:01:38.000Z,295.06
2019-05-18T11:03:39.000Z,294.88
2019-05-18T11:05:02.000Z,295
2019-05-18T11:07:03.000Z,295.05
2019-05-18T11:08:25.000Z,295.03
2019-05-18T11:10:26.000Z,295.05
2019-05-18T11:11:48.000Z,295.04
2019-05-18T11:13:49.000Z,295.25
2019-05-18T11:15:11.000Z,295.18
2019-05-18T11:17:12.000Z,295.3
2019-05-18T11:18:34.000Z,295.53
2019-05-18T11:20:36.000Z,295.62
2019-05-18T11:22:00.000Z,295.58
2019-05-18T11:24:01.000Z,295.51
2019-05-18T11:25:25.000Z,295.39
2019-05-18T11:27:27.000Z,295.4
2019-05-18T11:28:50.000Z,295.67
2019-05-18T11:30:52.000Z,295.91
2019-05-18T11:32:14.000Z,295.83
2019-05-18T11:34:16.000Z,295.76
2019-05-18T11:35:40.000Z,295.96
2019-05-18T11:37:41.000Z,296.17
2019-05-18T11:39:05.000Z,296.15
2019-05-18T11:41:09.000Z,296.15
2019-05-18T11:42:31.000Z,296.05
2019-05-18T11:44:34.000Z,296.32
2019-05-18T11:45:56.000Z,296.55
2019-05-18T11:47:57.000Z,296.19
2019-05-18T11:49:20.000Z,296.06
2019-05-18T11:51:25.000Z,296.06
2019-05-18T11:52:47.000Z,295.93
2019-05-18T11:54:48.000Z,295.89
2019-05-18T11:56:12.000Z,296.14
2019-05-18T11:58:14.000Z,296.12
2019-05-18T11:59:37.000Z,296.12
2019-05-18T12:01:40.000Z,295.99
2019-05-18T12:03:03.000Z,296.24
2019-05-18T12:05:04.000Z,296.37
2019-05-18T12:06:29.000Z,296.39
2019-05-18T12:08:32.000Z,296.56
2019-05-18T12:09:54.000Z,296.73
2019-05-18T12:11:57.000Z,296.61
2019-05-18T12:13:19.000Z,296.82
2019-05-18T12:15:24.000Z,297.05
2019-05-18T12:16:46.000Z,297.11
2019-05-18T12:18:47.000Z,296.82
2019-05-18T12:20:09.000Z,296.68
2019-05-18T12:22:12.000Z,296.53
2019-05-18T12:23:38.000Z,296.93
2019-05-18T12:25:42.000Z,297.22
2019-05-18T12:27:06.000Z,297.38
2019-05-18T12:29:09.000Z,297.63
2019-05-18T12:30:33.000Z,297.66
2019-05-18T12:32:38.000Z,297.87
2019-05-18T12:34:00.000Z,297.96
2019-05-18T12:36:04.000Z,298.05
2019-05-18T12:37:28.000Z,297.57
2019-05-18T12:39:34.000Z,297.71
2019-05-18T12:41:01.000Z,297.16
2019-05-18T12:43:06.000Z,296.85
2019-05-18T12:44:33.000Z,297.03
2019-05-18T12:46:34.000Z,297.1
2019-05-18T12:48:00.000Z,297.68
2019-05-18T12:50:02.000Z,297.73
2019-05-18T12:51:26.000Z,297.7
2019-05-18T12:53:27.000Z,297.49
2019-05-18T12:54:53.000Z,297.7
2019-05-18T12:56:58.000Z,298.13
2019-05-18T12:58:20.000Z,298.51
2019-05-18T13:00:25.000Z,298.58
2019-05-18T13:01:50.000Z,298.86
2019-05-18T13:03:56.000Z,299.05
2019-05-18T13:05:19.000Z,298.9
2019-05-18T13:07:24.000Z,298.68
2019-05-18T13:08:53.000Z,298.94
2019-05-18T13:10:57.000Z,298.98
2019-05-18T13:12:23.000Z,298.99
2019-05-18T13:14:26.000Z,298.98
2019-05-18T13:15:50.000Z,299.03
2019-05-18T13:17:55.000Z,298.55
2019-05-18T13:19:19.000Z,298.25
2019-05-18T13:21:21.000Z,298.18
2019-05-18T13:22:50.000Z,297.95
2019-05-18T13:24:51.000Z,297.89
2019-05-18T13:26:19.000Z,297.91
2019-05-18T13:28:24.000Z,297.99
2019-05-18T13:29:52.000Z,298.21
2019-05-18T13:31:56.000Z,298.98
2019-05-18T13:33:24.000Z,299.23
2019-05-18T13:35:27.000Z,299.21
2019-05-18T13:36:57.000Z,298.81
2019-05-18T13:39:03.000Z,298.83
2019-05-18T13:40:26.000Z,298.79
2019-05-18T13:42:35.000Z,299.21
2019-05-18T13:44:03.000Z,298.97
2019-05-18T13:46:10.000Z,298.67
2019-05-18T13:47:34.000Z,298.9
2019-05-18T13:51:12.000Z,299.16
2019-05-18T13:51:46.000Z,298.94
2019-05-18T13:53:10.000Z,298.3
2019-05-18T13:55:18.000Z,298.36
2019-05-18T13:56:45.000Z,298.72
2019-05-18T13:58:56.000Z,298.9
2019-05-18T14:00:24.000Z,298.79
2019-05-18T14:02:30.000Z,298.42
2019-05-18T14:03:52.000Z,298.64
2019-05-18T14:06:00.000Z,298.6
2019-05-18T14:07:33.000Z,298.45
2019-05-18T14:09:43.000Z,298.65
2019-05-18T14:11:14.000Z,298.71
2019-05-18T14:13:21.000Z,298.71
2019-05-18T14:14:46.000Z,298.91
2019-05-18T14:16:59.000Z,299
2019-05-18T14:18:31.000Z,298.85
2019-05-18T14:20:39.000Z,298.99
2019-05-18T14:22:09.000Z,298.86
2019-05-18T14:24:19.000Z,298.5
2019-05-18T14:25:47.000Z,298.19
2019-05-18T14:27:58.000Z,298.3
2019-05-18T14:29:28.000Z,298.22
2019-05-18T14:31:36.000Z,298.45
2019-05-18T14:33:06.000Z,299.01
2019-05-18T14:35:15.000Z,298.92
2019-05-18T14:36:45.000Z,298.47
2019-05-18T14:38:49.000Z,298.46
2019-05-18T14:40:19.000Z,299.26
2019-05-18T14:42:28.000Z,298.41
2019-05-18T14:43:56.000Z,297.89
2019-05-18T14:46:04.000Z,298.18
2019-05-18T14:47:35.000Z,298.38
2019-05-18T14:49:49.000Z,298.29
2019-05-18T14:51:21.000Z,298.03
2019-05-18T14:53:29.000Z,298.21
2019-05-18T14:55:05.000Z,298.14
2019-05-18T14:57:18.000Z,298.41
2019-05-18T14:58:45.000Z,298.62
2019-05-18T15:00:57.000Z,298.92
2019-05-18T15:02:27.000Z,298.89
2019-05-18T15:04:35.000Z,298.27
2019-05-18T15:06:11.000Z,298.18
2019-05-18T15:08:30.000Z,297.95
2019-05-18T15:10:01.000Z,298.29
2019-05-18T15:12:11.000Z,298.66
2019-05-18T15:13:45.000Z,298.95
2019-05-18T15:15:56.000Z,299.3
2019-05-18T15:17:29.000Z,299.59
2019-05-18T15:20:53.000Z,299.73
2019-05-18T15:22:15.000Z,299.72
2019-05-18T15:24:16.000Z,299.46
2019-05-18T15:25:38.000Z,299.32
2019-05-18T15:27:52.000Z,299.21
2019-05-18T15:29:14.000Z,299.61
2019-05-18T15:31:15.000Z,299.69
2019-05-18T15:32:37.000Z,299.5
2019-05-18T15:34:38.000Z,299.6
2019-05-18T15:35:59.000Z,300.06
2019-05-18T15:38:00.000Z,300.56
2019-05-18T15:39:22.000Z,300.61
2019-05-18T15:41:23.000Z,299.85
2019-05-18T15:42:45.000Z,298.95
2019-05-18T15:44:47.000Z,298.37
2019-05-18T15:46:09.000Z,298.4
2019-05-18T15:48:10.000Z,298.23
2019-05-18T15:49:35.000Z,297.86
2019-05-18T15:51:36.000Z,297.92
2019-05-18T15:52:58.000Z,298.03
2019-05-18T15:55:00.000Z,298.23
2019-05-18T15:56:23.000Z,298.17
2019-05-18T15:58:24.000Z,298.14
2019-05-18T15:59:47.000Z,297.92
2019-05-18T16:01:50.000Z,297.71
2019-05-18T16:03:12.000Z,297.68
2019-05-18T16:05:13.000Z,297.81
2019-05-18T16:06:35.000Z,297.84
2019-05-18T16:08:37.000Z,297.73
2019-05-18T16:10:01.000Z,297.55
2019-05-18T16:12:02.000Z,297.71
2019-05-18T16:13:25.000Z,297.76
2019-05-18T16:15:27.000Z,297.8
2019-05-18T16:16:51.000Z,297.88
2019-05-18T16:18:56.000Z,297.76
2019-05-18T16:20:18.000Z,297.65
2019-05-18T16:22:19.000Z,297.62
2019-05-18T16:23:41.000Z,297.57
2019-05-18T16:25:42.000Z,297.52
2019-05-18T16:27:04.000Z,297.5
2019-05-18T16:29:06.000Z,297.61
2019-05-18T16:30:30.000Z,297.57
2019-05-18T16:32:31.000Z,297.44
2019-05-18T16:33:53.000Z,297.35
2019-05-18T16:35:54.000Z,297.34
2019-05-18T16:37:16.000Z,297.33
2019-05-18T16:39:20.000Z,297.18
2019-05-18T16:40:42.000Z,297.1
2019-05-18T16:42:44.000Z,297.26
2019-05-18T16:44:09.000Z,297.29
2019-05-18T16:46:11.000Z,297.26
2019-05-18T16:47:33.000Z,297.31
2019-05-18T16:49:34.000Z,297.46
2019-05-18T16:50:56.000Z,297.47
2019-05-18T16:52:58.000Z,297.35
2019-05-18T16:54:23.000Z,297.03
2019-05-18T16:56:26.000Z,296.75
2019-05-18T16:57:59.000Z,296.62
2019-05-18T17:00:04.000Z,296.78
2019-05-18T17:01:28.000Z,296.8
2019-05-18T17:03:31.000Z,296.8
2019-05-18T17:04:54.000Z,296.8
2019-05-18T17:06:55.000Z,296.77
2019-05-18T17:08:17.000Z,296.77
2019-05-18T17:10:19.000Z,296.51
2019-05-18T17:11:44.000Z,296.14
2019-05-18T17:13:49.000Z,296.07
2019-05-18T17:15:11.000Z,295.92
2019-05-18T17:17:13.000Z,295.82
2019-05-18T17:18:36.000Z,295.97
2019-05-18T17:20:38.000Z,296.12
2019-05-18T17:22:06.000Z,296.22
2019-05-18T17:24:12.000Z,296.24
2019-05-18T17:25:34.000Z,296.2
2019-05-18T17:27:37.000Z,296.2
2019-05-18T17:29:03.000Z,295.95
2019-05-18T17:31:08.000Z,295.67
2019-05-18T17:32:33.000Z,295.47
2019-05-18T17:34:37.000Z,295.33
2019-05-18T17:36:00.000Z,295.22
2019-05-18T17:38:05.000Z,295.14
2019-05-18T17:39:29.000Z,295.11
2019-05-18T17:41:37.000Z,295.12
2019-05-18T17:43:01.000Z,295.17
2019-05-18T17:45:06.000Z,295.06
2019-05-18T17:46:30.000Z,294.95
2019-05-18T17:48:33.000Z,294.91
2019-05-18T17:49:58.000Z,294.82
2019-05-18T17:52:08.000Z,294.85
2019-05-18T17:53:30.000Z,294.82
2019-05-18T17:55:37.000Z,294.73
2019-05-18T17:57:00.000Z,294.73
2019-05-18T17:59:18.000Z,294.63
2019-05-18T18:00:41.000Z,294.63
2019-05-18T18:02:45.000Z,294.61
2019-05-18T18:04:16.000Z,294.47
2019-05-18T18:06:21.000Z,294.41
2019-05-18T18:07:46.000Z,294.38
2019-05-18T18:09:48.000Z,294.27
2019-05-18T18:11:14.000Z,294.26
2019-05-18T18:13:18.000Z,294.2
2019-05-18T18:14:44.000Z,294.16
2019-05-18T18:16:53.000Z,294.05
2019-05-18T18:18:21.000Z,294
2019-05-18T18:20:27.000Z,293.98
2019-05-18T18:21:50.000Z,293.89
2019-05-18T18:24:00.000Z,293.92
2019-05-18T18:25:24.000Z,293.76
2019-05-18T18:27:30.000Z,293.6
2019-05-18T18:28:58.000Z,293.51
2019-05-18T18:31:04.000Z,293.32
2019-05-18T18:32:28.000Z,293.35
2019-05-18T18:34:39.000Z,293.29
2019-05-18T18:36:08.000Z,293.18
2019-05-18T18:38:15.000Z,293.11
2019-05-18T18:39:39.000Z,293.12
2019-05-18T18:41:46.000Z,293.11
2019-05-18T18:43:14.000Z,292.92
2019-05-18T18:45:20.000Z,292.92
2019-05-18T18:46:47.000Z,292.85
2019-05-18T18:49:01.000Z,292.7
2019-05-18T18:50:32.000Z,292.47
2019-05-18T18:52:44.000Z,292.25
2019-05-18T18:54:09.000Z,292.13
2019-05-18T18:56:19.000Z,291.99
2019-05-18T18:57:50.000Z,291.7
2019-05-18T18:59:58.000Z,291.63
2019-05-18T19:01:23.000Z,291.56
2019-05-18T19:03:30.000Z,291.43
2019-05-18T19:04:57.000Z,291.31
2019-05-18T19:07:03.000Z,291.32
2019-05-18T19:08:32.000Z,291.22
2019-05-18T19:10:39.000Z,291.26
2019-05-18T19:12:09.000Z,291.04
2019-05-18T19:14:22.000Z,290.86
2019-05-18T19:15:54.000Z,290.9
2019-05-18T19:18:04.000Z,290.62
2019-05-18T19:19:36.000Z,290.39
2019-05-18T19:21:48.000Z,290.46
2019-05-18T19:23:17.000Z,290.38
2019-05-18T19:25:25.000Z,290.17
2019-05-18T19:26:51.000Z,290.06
2019-05-18T19:29:00.000Z,289.97
2019-05-18T19:30:32.000Z,290.14
2019-05-18T19:32:47.000Z,290.18
2019-05-18T19:34:19.000Z,289.93
2019-05-18T19:36:33.000Z,289.83
2019-05-18T19:38:01.000Z,289.79
2019-05-18T19:40:12.000Z,289.72
2019-05-18T19:41:44.000Z,289.54
2019-05-18T19:43:49.000Z,289.38
2019-05-18T19:45:20.000Z,289.34
2019-05-18T19:47:32.000Z,289.32
2019-05-18T19:49:02.000Z,289.25
2019-05-18T19:51:13.000Z,289.02
2019-05-18T19:52:49.000Z,288.93
2019-05-18T19:55:00.000Z,288.88
2019-05-18T19:56:28.000Z,288.96
2019-05-18T19:58:38.000Z,288.93
2019-05-18T20:00:12.000Z,288.81
2019-05-18T20:02:23.000Z,288.8
2019-05-18T20:03:55.000Z,288.7
2019-05-18T20:06:08.000Z,288.55
2019-05-18T20:07:38.000Z,288.44
2019-05-18T20:11:04.000Z,288.16
2019-05-18T20:12:26.000Z,288.03
2019-05-18T20:14:28.000Z,287.93
2019-05-18T20:15:50.000Z,287.81
2019-05-18T20:17:51.000Z,287.72
2019-05-18T20:19:13.000Z,287.66
2019-05-18T20:21:14.000Z,287.84
2019-05-18T20:22:36.000Z,287.96
2019-05-18T20:24:37.000Z,288.07
2019-05-18T20:25:59.000Z,288.18
2019-05-18T20:28:00.000Z,288.14
2019-05-18T20:29:22.000Z,287.88
2019-05-18T20:31:23.000Z,287.86
2019-05-18T20:32:45.000Z,287.83
2019-05-18T20:34:46.000Z,287.88
2019-05-18T20:36:08.000Z,287.92
2019-05-18T20:38:10.000Z,287.75
2019-05-18T20:39:32.000Z,287.76
2019-05-18T20:41:33.000Z,287.9
2019-05-18T20:42:57.000Z,287.89
2019-05-18T20:45:00.000Z,287.71
2019-05-18T20:46:23.000Z,287.67
2019-05-18T20:48:24.000Z,287.68
2019-05-18T20:49:46.000Z,287.6
2019-05-18T20:51:48.000Z,287.5
2019-05-18T20:53:10.000Z,287.42
2019-05-18T20:55:12.000Z,287.47
2019-05-18T20:56:34.000Z,287.53
2019-05-18T20:58:37.000Z,287.51
2019-05-18T21:00:02.000Z,287.41
2019-05-18T21:02:03.000Z,287.37
2019-05-18T21:03:25.000Z,287.33
2019-05-18T21:05:26.000Z,287.26
2019-05-18T21:08:42.000Z,287.15
2019-05-18T21:10:04.000Z,287.09
2019-05-18T21:12:05.000Z,287.2
2019-05-18T21:13:27.000Z,287.22
2019-05-18T21:15:28.000Z,286.91
2019-05-18T21:16:50.000Z,286.8
2019-05-18T21:18:51.000Z,286.78
2019-05-18T21:20:13.000Z,286.78
2019-05-18T21:22:14.000Z,286.83
2019-05-18T21:23:36.000Z,286.86
2019-05-18T21:25:38.000Z,286.79
2019-05-18T21:27:01.000Z,286.75
2019-05-18T21:29:02.000Z,286.69
2019-05-18T21:30:24.000Z,286.56
2019-05-18T21:32:25.000Z,286.5
2019-05-18T21:33:47.000Z,286.56
2019-05-18T21:35:48.000Z,286.49
2019-05-18T21:37:10.000Z,286.43
2019-05-18T21:39:12.000Z,286.24
2019-05-18T21:40:35.000Z,286.2
2019-05-18T21:42:37.000Z,286.13
2019-05-18T21:43:59.000Z,286.17
2019-05-18T21:46:01.000Z,286.13
2019-05-18T21:47:23.000Z,286
2019-05-18T21:49:24.000Z,285.92
2019-05-18T21:50:46.000Z,285.95
2019-05-18T21:52:47.000Z,286.11
2019-05-18T21:54:09.000Z,286.09
2019-05-18T21:56:11.000Z,285.99
2019-05-18T21:57:33.000Z,286.06
2019-05-18T21:59:34.000Z,286.17
2019-05-18T22:00:56.000Z,285.91
2019-05-18T22:02:58.000Z,285.77